createdAt,value
2023-03-27T00:00:17.006Z,41.78
2023-03-27T00:20:16.765Z,41.75
2023-03-27T00:40:16.766Z,41.77
2023-03-27T01:00:16.753Z,42.31
2023-03-27T01:20:16.785Z,42.18
2023-03-27T01:40:16.498Z,42.18
2023-03-27T02:00:17.225Z,42.14
2023-03-27T02:20:16.750Z,41.72
2023-03-27T02:40:16.750Z,41.78
2023-03-27T03:00:16.766Z,41.8
2023-03-27T03:20:16.770Z,41.63
2023-03-27T03:40:16.751Z,41.62
2023-03-27T04:00:16.780Z,41.63
2023-03-27T04:20:16.757Z,41.56
2023-03-27T04:40:16.762Z,41.54
2023-03-27T05:00:16.760Z,41.53
2023-03-27T05:20:16.537Z,41.52
2023-03-27T05:40:16.779Z,41.51
2023-03-27T06:00:16.771Z,41.5
2023-03-27T06:20:16.785Z,41.49
2023-03-27T06:40:16.768Z,41.49
2023-03-27T07:00:16.756Z,41.47
2023-03-27T08:00:16.797Z,41.42
2023-03-27T08:20:16.720Z,41.41
2023-03-27T08:40:16.705Z,41.4
2023-03-27T10:00:16.613Z,41.42
2023-03-27T12:00:16.536Z,41.16
2023-03-27T12:40:16.460Z,41.2
2023-03-27T13:00:16.482Z,41.28
2023-03-27T13:40:16.404Z,41.15
2023-03-27T14:00:16.367Z,41.14
2023-03-27T14:20:16.371Z,41.2
2023-03-27T14:40:16.334Z,41.14
2023-03-27T15:00:16.348Z,41.14
2023-03-27T15:20:16.302Z,41.14
2023-03-27T15:40:16.285Z,41.14
2023-03-27T16:00:16.255Z,41.14
2023-03-27T16:20:16.383Z,41.14
2023-03-27T16:40:16.199Z,41.14
2023-03-27T17:00:16.158Z,41.14
2023-03-27T17:20:16.151Z,41.14
2023-03-27T20:00:16.083Z,41.13
2023-03-27T20:20:16.081Z,41.11
2023-03-27T21:00:15.799Z,41.06
2023-03-27T22:00:16.064Z,41
2023-03-27T23:40:16.063Z,40.91
